Time;durP1;ratioP1;P1;durP2;ratioP2;P2;SDS_P1;SDS_P2;PMS_P1;PMS_P2;Temp;Humidity;BMP_temperature;BMP_pressure;BME280_temperature;BME280_humidity;BME280_pressure;Samples;Min_cycle;Max_cycle;Signal;HPM_P1;HPM_P2
2023/04/08 00:02:18;;;;;;;32.35;18.00;;;;;;;9.20;92.04;101678.66;5015083;28;20806;-67
2023/04/08 00:04:44;;;;;;;41.03;17.70;;;;;;;9.20;92.32;101685.56;5013686;28;20033;-67
2023/04/08 00:07:09;;;;;;;33.55;16.85;;;;;;;9.20;92.65;101685.56;5014226;28;20591;-67
2023/04/08 00:09:35;;;;;;;34.97;17.80;;;;;;;9.21;92.57;101687.28;5016110;28;20041;-68
2023/04/08 00:12:00;;;;;;;35.30;17.23;;;;;;;9.21;92.37;101687.28;5011596;28;20849;-68
2023/04/08 00:14:26;;;;;;;28.90;16.48;;;;;;;9.21;92.51;101692.44;5008780;28;20466;-68
2023/04/08 00:16:51;;;;;;;30.25;15.65;;;;;;;9.21;92.73;101689.84;5016521;28;20030;-68
2023/04/08 00:19:17;;;;;;;30.42;14.88;;;;;;;9.21;92.52;101687.28;5011329;28;20580;-67
2023/04/08 00:21:42;;;;;;;31.40;15.63;;;;;;;9.21;93.12;101687.28;5012771;28;20989;-68
2023/04/08 00:24:07;;;;;;;31.58;15.05;;;;;;;9.21;93.38;101688.16;5013086;28;20092;-68
2023/04/08 00:26:33;;;;;;;30.48;15.57;;;;;;;9.19;92.95;101684.69;5011932;28;20093;-68
2023/04/08 00:28:58;;;;;;;33.38;15.45;;;;;;;9.20;92.87;101686.41;5005564;28;20916;-68
2023/04/08 00:31:24;;;;;;;31.98;16.60;;;;;;;9.20;92.66;101686.41;5009977;28;20838;-68
2023/04/08 00:33:49;;;;;;;25.38;16.15;;;;;;;9.17;92.01;101691.53;4994493;28;20057;-68
2023/04/08 00:36:15;;;;;;;30.58;13.90;;;;;;;9.16;92.52;101694.97;5015258;28;20026;-67
2023/04/08 00:38:40;;;;;;;29.23;14.93;;;;;;;9.16;92.40;101683.78;5018738;28;20069;-68
2023/04/08 00:41:05;;;;;;;24.42;13.40;;;;;;;9.14;92.54;101688.91;5017696;28;20045;-68
2023/04/08 00:43:31;;;;;;;30.52;14.20;;;;;;;9.13;92.07;101690.66;5008710;28;20534;-68
2023/04/08 00:45:56;;;;;;;27.70;13.18;;;;;;;9.13;92.82;101692.34;5012041;28;20136;-68
2023/04/08 00:48:21;;;;;;;23.50;13.82;;;;;;;9.12;93.12;101693.19;5012212;28;20071;-68
2023/04/08 00:50:47;;;;;;;26.33;12.80;;;;;;;9.12;92.18;101695.78;5017166;28;20449;-68
2023/04/08 00:53:17;;;;;;;25.33;13.27;;;;;;;9.10;92.08;101690.59;5009701;28;20049;-67
2023/04/08 00:55:42;;;;;;;28.23;13.73;;;;;;;9.10;92.03;101692.31;5016968;28;20044;-68
2023/04/08 00:58:08;;;;;;;22.77;12.57;;;;;;;9.09;92.59;101696.59;5014371;28;20025;-67
2023/04/08 01:00:41;;;;;;;26.65;12.95;;;;;;;9.10;92.14;101698.34;5010511;28;20041;-67
2023/04/08 01:03:30;;;;;;;26.73;12.90;;;;;;;9.09;93.14;101694.03;5014096;28;20038;-67
2023/04/08 01:06:04;;;;;;;25.98;12.50;;;;;;;9.09;93.16;101691.44;5015735;28;20038;-67
2023/04/08 01:08:31;;;;;;;24.77;12.95;;;;;;;9.10;92.64;101698.34;5011995;28;20506;-68
2023/04/08 01:11:00;;;;;;;23.85;12.80;;;;;;;9.09;92.55;101690.56;5017450;28;20517;-67
2023/04/08 01:13:29;;;;;;;23.40;13.23;;;;;;;9.08;92.93;101697.44;5018806;28;20041;-67
2023/04/08 01:15:55;;;;;;;27.23;14.40;;;;;;;9.10;92.71;101694.91;5013598;28;20037;-67
2023/04/08 01:18:21;;;;;;;27.35;13.77;;;;;;;9.10;92.90;101703.50;5009131;28;20767;-68
2023/04/08 01:20:49;;;;;;;32.85;14.18;;;;;;;9.09;92.97;101698.31;5014280;28;20136;-68
2023/04/08 01:23:47;;;;;;;31.52;15.32;;;;;;;9.09;93.73;101699.19;5016525;28;20599;-67
2023/04/08 01:26:21;;;;;;;24.42;12.98;;;;;;;9.07;93.30;101693.16;5005429;28;20630;-68
2023/04/08 01:28:50;;;;;;;25.17;13.93;;;;;;;9.09;93.52;101698.31;5016352;28;20380;-68
2023/04/08 01:31:16;;;;;;;25.58;14.52;;;;;;;9.09;92.74;101698.31;5018756;28;20540;-68
2023/04/08 01:33:43;;;;;;;30.92;14.80;;;;;;;9.09;92.98;101696.59;5012923;28;20045;-67
2023/04/08 01:36:09;;;;;;;28.77;13.77;;;;;;;9.10;92.82;101697.47;5022771;28;20141;-68
2023/04/08 01:38:38;;;;;;;31.52;15.20;;;;;;;9.10;92.82;101697.47;5013720;28;20044;-66
2023/04/08 01:41:05;;;;;;;27.85;15.07;;;;;;;9.10;93.38;101700.94;5011688;28;20033;-66
2023/04/08 01:43:32;;;;;;;22.33;13.32;;;;;;;9.11;93.30;101699.19;5003157;28;20030;-67
2023/04/08 01:46:00;;;;;;;29.17;14.10;;;;;;;9.11;93.11;101706.91;5020764;28;20132;-66
2023/04/08 01:48:26;;;;;;;31.10;15.25;;;;;;;9.11;93.09;101697.47;5017171;28;20094;-66
2023/04/08 01:50:53;;;;;;;33.38;15.65;;;;;;;9.12;93.29;101706.09;5014331;28;20126;-67
2023/04/08 01:53:19;;;;;;;27.98;15.38;;;;;;;9.12;93.48;101698.34;5021263;28;20065;-66
2023/04/08 01:55:45;;;;;;;28.38;14.13;;;;;;;9.11;93.62;101702.63;5019915;28;20132;-66
2023/04/08 01:58:15;;;;;;;30.15;14.45;;;;;;;9.11;94.07;101702.63;5023087;28;20188;-66
2023/04/08 02:00:42;;;;;;;25.77;14.02;;;;;;;9.09;94.09;101698.31;5013671;28;20041;-66
2023/04/08 02:03:10;;;;;;;31.10;16.63;;;;;;;9.08;94.35;101702.59;5025341;28;20037;-67
2023/04/08 02:05:36;;;;;;;29.25;13.85;;;;;;;9.05;93.92;101702.56;5034293;28;20033;-67
2023/04/08 02:08:01;;;;;;;24.90;14.45;;;;;;;9.03;94.30;101708.53;5021986;28;20044;-67
2023/04/08 02:10:27;;;;;;;32.08;15.90;;;;;;;8.98;94.60;101710.22;5024853;28;20030;-67
2023/04/08 02:12:53;;;;;;;41.63;18.00;;;;;;;8.93;95.76;101710.13;5025252;28;20466;-67
2023/04/08 02:15:19;;;;;;;32.08;17.30;;;;;;;8.87;95.42;101707.47;5031744;28;20100;-67
2023/04/08 02:17:51;;;;;;;37.42;17.38;;;;;;;8.85;96.06;101718.59;5033142;28;20094;-67
2023/04/08 02:20:20;;;;;;;32.53;18.08;;;;;;;8.80;96.25;101713.41;5021863;28;20038;-66
2023/04/08 02:22:58;;;;;;;33.92;17.58;;;;;;;8.78;96.83;101715.09;5020245;28;20588;-67
2023/04/08 02:25:27;;;;;;;33.10;17.88;;;;;;;8.76;96.99;101713.31;5019092;28;20033;-67
2023/04/08 02:27:54;;;;;;;34.33;17.23;;;;;;;8.75;97.78;101716.78;5017452;28;20041;-66
2023/04/08 02:30:21;;;;;;;28.67;17.75;;;;;;;8.75;97.86;101716.78;5028052;28;20137;-67
2023/04/08 02:32:47;;;;;;;34.90;18.13;;;;;;;8.74;98.45;101709.88;5030000;28;20033;-66
2023/04/08 02:35:15;;;;;;;41.22;20.05;;;;;;;8.72;98.57;101711.56;5026605;28;20064;-66
2023/04/08 02:37:41;;;;;;;49.70;21.80;;;;;;;8.69;98.97;101716.69;5028967;28;20501;-66
2023/04/08 02:40:40;;;;;;;42.22;19.35;;;;;;;8.67;99.79;101711.50;5019948;28;20025;-66
2023/04/08 02:43:06;;;;;;;42.13;19.83;;;;;;;8.66;99.85;101719.22;5016895;28;20044;-66
2023/04/08 02:45:36;;;;;;;43.00;20.88;;;;;;;8.64;100.00;101719.19;5021035;28;20041;-66
2023/04/08 02:48:05;;;;;;;36.40;19.85;;;;;;;8.63;100.00;101719.16;5018689;28;20530;-66
2023/04/08 02:50:30;;;;;;;40.38;22.25;;;;;;;8.62;100.00;101709.69;5017983;28;20176;-66
2023/04/08 02:52:55;;;;;;;51.63;23.77;;;;;;;8.60;100.00;101713.97;5016878;28;20495;-66
2023/04/08 02:55:21;;;;;;;43.55;22.23;;;;;;;8.58;100.00;101719.09;5018762;28;20683;-66
2023/04/08 02:57:47;;;;;;;56.10;23.20;;;;;;;8.57;100.00;101715.63;5018753;28;20045;-66
2023/04/08 03:00:13;;;;;;;56.22;25.05;;;;;;;8.55;100.00;101712.19;5018586;28;20648;-65
2023/04/08 03:02:38;;;;;;;47.10;21.73;;;;;;;8.55;100.00;101716.47;5014256;28;20038;-66
2023/04/08 03:05:04;;;;;;;48.83;22.98;;;;;;;8.56;100.00;101716.50;5016105;28;20040;-66
2023/04/08 03:07:31;;;;;;;55.25;23.20;;;;;;;8.55;100.00;101714.75;5019893;28;20067;-66
2023/04/08 03:09:56;;;;;;;53.55;23.80;;;;;;;8.54;100.00;101719.91;5015456;28;20044;-66
2023/04/08 03:12:22;;;;;;;53.47;23.52;;;;;;;8.52;100.00;101714.72;5016434;28;20029;-65
2023/04/08 03:14:48;;;;;;;54.50;23.58;;;;;;;8.51;100.00;101719.84;5008496;28;20033;-66
2023/04/08 03:17:14;;;;;;;45.15;21.98;;;;;;;8.49;100.00;101719.81;5017188;28;20044;-66
2023/04/08 03:19:39;;;;;;;43.72;23.25;;;;;;;8.48;100.00;101722.38;5017176;28;20033;-66
2023/04/08 03:22:05;;;;;;;51.47;24.52;;;;;;;8.46;100.00;101724.06;5015181;28;20080;-67
2023/04/08 03:24:30;;;;;;;56.33;25.10;;;;;;;8.48;100.00;101724.97;5016215;28;20837;-66
2023/04/08 03:26:56;;;;;;;49.58;24.45;;;;;;;8.48;100.00;101728.41;5013883;28;20041;-67
2023/04/08 03:29:21;;;;;;;55.80;24.30;;;;;;;8.49;100.00;101727.53;5015171;28;20030;-67
2023/04/08 03:31:46;;;;;;;49.10;23.55;;;;;;;8.50;100.00;101731.88;5017844;28;20068;-68
2023/04/08 03:34:12;;;;;;;57.50;26.83;;;;;;;8.50;100.00;101728.41;5015444;28;20060;-67
2023/04/08 03:36:37;;;;;;;51.22;24.27;;;;;;;8.46;100.00;101730.06;5020185;28;20069;-66
2023/04/08 03:39:03;;;;;;;49.90;23.63;;;;;;;8.45;100.00;101736.09;5020345;28;20045;-66
2023/04/08 03:41:29;;;;;;;56.45;25.98;;;;;;;8.45;100.00;101732.63;5029430;28;20397;-66
2023/04/08 03:43:55;;;;;;;46.22;24.08;;;;;;;8.45;100.00;101730.06;5031097;28;20918;-66
2023/04/08 03:46:21;;;;;;;51.22;25.23;;;;;;;8.44;100.00;101731.78;5015282;28;20063;-67
2023/04/08 03:48:46;;;;;;;50.70;23.63;;;;;;;8.43;100.00;101726.56;5011583;28;20049;-67
2023/04/08 03:51:12;;;;;;;51.88;25.35;;;;;;;8.42;100.00;101730.88;5022662;28;20674;-67
2023/04/08 03:53:37;;;;;;;55.67;25.25;;;;;;;8.43;100.00;101731.72;5012547;28;20038;-67
2023/04/08 03:56:03;;;;;;;53.90;26.63;;;;;;;8.44;100.00;101730.91;5017174;28;20041;-64
2023/04/08 03:58:29;;;;;;;54.05;26.15;;;;;;;8.43;100.00;101735.19;5016902;28;20045;-64
2023/04/08 04:00:54;;;;;;;61.05;26.60;;;;;;;8.42;100.00;101730.88;5016638;28;20115;-64
2023/04/08 04:03:20;;;;;;;53.30;24.92;;;;;;;8.41;100.00;101739.44;5020249;28;20034;-65
2023/04/08 04:05:45;;;;;;;53.28;25.13;;;;;;;8.43;100.00;101729.16;5027676;28;20049;-65
2023/04/08 04:08:11;;;;;;;51.17;23.25;;;;;;;8.43;100.00;101735.19;5019084;28;20510;-65
2023/04/08 04:10:36;;;;;;;62.92;27.52;;;;;;;8.42;100.00;101738.63;5021398;28;20029;-66
2023/04/08 04:13:01;;;;;;;53.38;25.48;;;;;;;8.43;100.00;101736.88;5017158;28;20029;-64
2023/04/08 04:15:27;;;;;;;50.97;25.92;;;;;;;8.42;100.00;101741.19;5017287;28;20104;-65
2023/04/08 04:17:52;;;;;;;58.95;27.92;;;;;;;8.42;100.00;101733.47;5013479;28;20040;-65
2023/04/08 04:20:18;;;;;;;56.80;27.90;;;;;;;8.41;100.00;101733.44;5018057;28;20840;-66
2023/04/08 04:22:43;;;;;;;52.13;25.25;;;;;;;8.42;100.00;101740.31;5019940;28;20036;-66
2023/04/08 04:25:09;;;;;;;48.22;25.17;;;;;;;8.42;100.00;101728.31;5018707;28;20059;-66
2023/04/08 04:27:35;;;;;;;52.03;25.75;;;;;;;8.44;100.00;101736.06;5026038;28;20188;-66
2023/04/08 04:30:01;;;;;;;55.50;26.98;;;;;;;8.43;100.00;101740.31;5017340;28;20045;-67
2023/04/08 04:32:26;;;;;;;60.05;26.40;;;;;;;8.44;100.00;101747.22;5018766;28;20659;-66
2023/04/08 04:34:52;;;;;;;56.13;27.33;;;;;;;8.44;100.00;101747.22;5023987;28;20037;-66
2023/04/08 04:37:17;;;;;;;64.78;28.23;;;;;;;8.46;100.00;101752.38;5014651;28;20076;-66
2023/04/08 04:39:43;;;;;;;61.40;28.23;;;;;;;8.45;100.00;101753.25;5015472;28;20041;-67
2023/04/08 04:42:08;;;;;;;65.25;28.98;;;;;;;8.43;100.00;101745.47;5008444;28;20121;-66
2023/04/08 04:44:34;;;;;;;56.90;27.92;;;;;;;8.44;100.00;101756.66;5011175;28;20574;-67
2023/04/08 04:46:59;;;;;;;63.53;30.15;;;;;;;8.45;100.00;101755.81;5011472;28;20829;-67
2023/04/08 04:49:24;;;;;;;62.20;28.48;;;;;;;8.46;100.00;101755.84;5011758;28;20581;-66
2023/04/08 04:51:50;;;;;;;63.65;29.90;;;;;;;8.45;100.00;101759.28;5014307;28;20050;-67
2023/04/08 04:54:15;;;;;;;72.63;29.15;;;;;;;8.47;100.00;101759.28;5012215;28;20037;-67
2023/04/08 04:56:40;;;;;;;65.28;29.48;;;;;;;8.47;100.00;101759.28;5011494;28;20111;-68
2023/04/08 04:59:07;;;;;;;62.20;29.45;;;;;;;8.48;100.00;101761.03;5013846;28;20045;-67
2023/04/08 05:01:32;;;;;;;61.60;30.27;;;;;;;8.48;100.00;101758.44;5013286;28;20042;-67
2023/04/08 05:03:58;;;;;;;64.05;29.80;;;;;;;8.50;100.00;101759.34;5016163;28;20466;-67
2023/04/08 05:06:23;;;;;;;57.67;28.40;;;;;;;8.53;100.00;101759.38;5015405;28;20522;-67
2023/04/08 05:08:50;;;;;;;71.15;30.05;;;;;;;8.55;100.00;101775.72;5016088;28;20037;-67
2023/04/08 05:11:17;;;;;;;76.68;33.15;;;;;;;8.54;100.00;101772.28;5013120;28;20038;-67
2023/04/08 05:13:43;;;;;;;70.85;31.40;;;;;;;8.56;100.00;101765.47;5008728;28;20065;-67
2023/04/08 05:16:08;;;;;;;66.88;31.55;;;;;;;8.58;100.00;101774.06;5010710;28;20379;-66
2023/04/08 05:18:33;;;;;;;68.15;32.63;;;;;;;8.62;100.00;101771.53;5011707;28;20053;-65
2023/04/08 05:20:59;;;;;;;73.40;30.65;;;;;;;8.65;100.00;101775.03;5011781;28;20613;-66
2023/04/08 05:23:24;;;;;;;68.22;32.05;;;;;;;8.67;100.00;101768.19;5013572;28;20217;-66
2023/04/08 05:25:50;;;;;;;67.20;31.33;;;;;;;8.70;100.00;101768.22;5016595;28;20052;-66
2023/04/08 05:28:15;;;;;;;77.80;34.13;;;;;;;8.72;100.00;101771.72;5016972;28;20030;-66
2023/04/08 05:30:40;;;;;;;73.55;32.58;;;;;;;8.73;100.00;101770.00;5014376;28;20049;-65
2023/04/08 05:33:06;;;;;;;74.97;31.75;;;;;;;8.77;100.00;101774.34;5021143;28;20041;-66
2023/04/08 05:35:31;;;;;;;73.18;32.95;;;;;;;8.77;100.00;101772.66;5019976;28;20041;-66
2023/04/08 05:37:57;;;;;;;69.45;30.67;;;;;;;8.80;100.00;101771.81;5018658;28;20044;-66
2023/04/08 05:40:22;;;;;;;66.30;29.52;;;;;;;8.83;100.00;101772.75;5017173;28;20029;-66
2023/04/08 05:42:48;;;;;;;66.97;29.38;;;;;;;8.86;100.00;101777.94;5012314;28;20107;-67
2023/04/08 05:45:13;;;;;;;70.15;32.13;;;;;;;8.84;100.00;101779.59;5014639;28;20070;-67
2023/04/08 05:47:39;;;;;;;65.13;29.52;;;;;;;8.84;100.00;101779.59;5015651;28;20131;-66
2023/04/08 05:50:04;;;;;;;64.55;29.55;;;;;;;8.87;100.00;101779.66;5012557;28;20525;-67
2023/04/08 05:52:30;;;;;;;63.90;27.88;;;;;;;8.87;100.00;101778.81;5014969;28;20041;-67
2023/04/08 05:54:55;;;;;;;66.55;31.30;;;;;;;8.88;100.00;101791.72;5011231;28;20047;-68
2023/04/08 05:57:21;;;;;;;65.53;28.55;;;;;;;8.91;100.00;101788.31;5016220;28;20478;-67
2023/04/08 05:59:46;;;;;;;64.57;30.13;;;;;;;8.92;100.00;101795.22;5014220;28;20042;-67
2023/04/08 06:02:11;;;;;;;66.93;28.90;;;;;;;8.93;100.00;101800.38;5014495;28;20034;-67
2023/04/08 06:04:37;;;;;;;66.90;30.98;;;;;;;8.95;100.00;101797.84;5014800;28;20096;-68
2023/04/08 06:07:03;;;;;;;63.60;28.05;;;;;;;8.97;100.00;101809.03;5021246;28;20052;-68
2023/04/08 06:09:28;;;;;;;69.78;29.40;;;;;;;8.99;100.00;101808.19;5014743;28;20049;-68
2023/04/08 06:11:55;;;;;;;64.82;29.73;;;;;;;8.97;100.00;101812.47;5017652;28;20049;-68
2023/04/08 06:14:20;;;;;;;62.00;28.55;;;;;;;8.97;100.00;101812.47;5019576;28;20042;-68
2023/04/08 06:16:46;;;;;;;61.83;28.33;;;;;;;8.97;100.00;101809.91;5016781;28;20029;-67
2023/04/08 06:19:11;;;;;;;62.80;30.50;;;;;;;8.96;100.00;101815.06;5015207;28;20048;-68
2023/04/08 06:21:37;;;;;;;69.55;30.90;;;;;;;8.95;100.00;101816.75;5014678;28;20764;-68
2023/04/08 06:24:02;;;;;;;58.90;28.80;;;;;;;8.99;100.00;101822.84;5016733;28;20124;-68
2023/04/08 06:26:27;;;;;;;61.72;30.02;;;;;;;9.01;100.00;101823.72;5015684;28;20037;-68
2023/04/08 06:28:53;;;;;;;58.95;28.58;;;;;;;9.04;100.00;101836.66;5014674;28;20041;-68
2023/04/08 06:31:18;;;;;;;58.70;28.63;;;;;;;9.11;100.00;101829.00;5017268;28;20033;-68
2023/04/08 06:33:44;;;;;;;62.22;28.38;;;;;;;9.19;100.00;101833.44;5017746;28;20041;-68
2023/04/08 06:36:10;;;;;;;58.25;28.05;;;;;;;9.16;100.00;101831.69;5016795;28;20483;-68
2023/04/08 06:38:35;;;;;;;56.65;26.65;;;;;;;9.21;99.65;101835.19;5016111;28;20707;-68
2023/04/08 06:41:04;;;;;;;58.97;28.35;;;;;;;9.22;99.81;101831.75;5018719;28;20042;-68
2023/04/08 06:43:30;;;;;;;65.30;27.67;;;;;;;9.23;98.68;101833.47;5014638;28;20045;-68
2023/04/08 06:45:56;;;;;;;51.40;26.15;;;;;;;9.25;98.75;101836.97;5013416;28;20797;-69
2023/04/08 06:48:22;;;;;;;61.97;28.95;;;;;;;9.27;98.04;101829.22;5013381;28;20522;-68
2023/04/08 06:50:48;;;;;;;60.45;27.58;;;;;;;9.29;97.15;101832.72;5015583;28;20033;-68
2023/04/08 06:53:13;;;;;;;55.83;27.63;;;;;;;9.31;97.46;101838.75;5016321;28;20536;-68
2023/04/08 06:55:39;;;;;;;54.97;25.85;;;;;;;9.40;96.84;101837.19;5013941;28;20034;-68
2023/04/08 06:58:04;;;;;;;49.70;24.45;;;;;;;9.42;95.82;101843.22;5013292;28;20029;-69
2023/04/08 07:00:30;;;;;;;46.22;26.15;;;;;;;9.46;94.56;101841.56;5013249;28;20590;-68
2023/04/08 07:02:55;;;;;;;45.00;23.20;;;;;;;9.57;95.12;101838.28;5013276;28;20183;-68
2023/04/08 07:05:21;;;;;;;46.20;23.75;;;;;;;9.66;94.29;101840.13;5015360;28;20038;-68
2023/04/08 07:07:46;;;;;;;45.45;24.85;;;;;;;9.76;93.35;101841.09;5018007;28;20444;-69
2023/04/08 07:10:12;;;;;;;43.95;23.80;;;;;;;9.74;92.58;101845.38;5016466;28;20120;-69
2023/04/08 07:12:37;;;;;;;44.35;24.27;;;;;;;9.68;92.48;101852.19;5018158;28;20045;-71
2023/04/08 07:15:03;;;;;;;47.13;24.73;;;;;;;9.67;92.20;101853.03;5014442;28;20518;-70
2023/04/08 07:17:28;;;;;;;42.47;24.33;;;;;;;9.73;92.56;101852.28;5013759;28;20786;-70
2023/04/08 07:19:54;;;;;;;44.90;24.67;;;;;;;9.77;91.81;101863.47;5012873;28;20068;-71
2023/04/08 07:22:20;;;;;;;40.80;22.92;;;;;;;9.83;92.54;101863.56;5014919;28;20069;-69
2023/04/08 07:24:48;;;;;;;45.22;23.92;;;;;;;9.88;91.96;101861.91;5011821;28;20136;-70
2023/04/08 07:27:16;;;;;;;45.22;25.33;;;;;;;9.93;91.42;101861.13;5013500;28;20049;-70
2023/04/08 07:29:42;;;;;;;47.40;25.58;;;;;;;9.94;89.82;101860.25;5016614;28;20044;-70
2023/04/08 07:32:07;;;;;;;44.67;23.08;;;;;;;10.05;89.84;101861.25;5007741;28;20038;-70
2023/04/08 07:34:36;;;;;;;44.13;24.55;;;;;;;10.07;89.62;101864.72;5012643;28;20131;-71
2023/04/08 07:37:02;;;;;;;41.90;23.10;;;;;;;10.17;90.03;101870.84;5014143;28;20053;-70
2023/04/08 07:39:27;;;;;;;45.20;25.27;;;;;;;10.17;88.32;101874.31;5019145;28;20037;-70
2023/04/08 07:41:53;;;;;;;44.85;25.15;;;;;;;10.33;89.67;101877.06;5010314;28;20042;-70
2023/04/08 07:44:18;;;;;;;45.33;25.15;;;;;;;10.23;87.30;101879.53;5005682;28;20037;-70
2023/04/08 07:46:50;;;;;;;47.22;26.67;;;;;;;10.24;88.82;101882.97;5009193;28;20505;-70
2023/04/08 07:49:16;;;;;;;43.80;24.30;;;;;;;10.22;86.32;101889.84;5012223;28;20029;-70
2023/04/08 07:51:41;;;;;;;44.72;26.35;;;;;;;10.36;87.29;101892.56;5020257;28;20069;-70
2023/04/08 07:54:06;;;;;;;47.30;26.73;;;;;;;10.51;86.42;101883.25;5012937;28;20041;-70
2023/04/08 07:56:32;;;;;;;46.63;25.73;;;;;;;10.63;85.43;101885.97;5013930;28;20507;-71
2023/04/08 07:58:57;;;;;;;47.70;26.67;;;;;;;10.77;86.55;101892.13;5011369;28;20048;-70
2023/04/08 08:01:23;;;;;;;44.10;26.58;;;;;;;10.85;83.96;101893.91;5009343;28;20050;-70
2023/04/08 08:03:50;;;;;;;42.97;23.77;;;;;;;10.91;83.76;101888.78;5018386;28;20045;-69
2023/04/08 08:06:16;;;;;;;46.95;25.10;;;;;;;11.00;84.15;101891.44;5018421;28;20044;-70
2023/04/08 08:08:41;;;;;;;44.88;25.30;;;;;;;10.74;82.68;101893.84;5023163;28;20033;-71
2023/04/08 08:11:07;;;;;;;43.85;24.80;;;;;;;10.52;85.05;101900.50;5019833;28;20096;-70
2023/04/08 08:13:33;;;;;;;47.88;25.88;;;;;;;10.43;86.03;101907.28;5014078;28;20045;-70
2023/04/08 08:15:59;;;;;;;42.35;24.90;;;;;;;10.30;85.53;101905.44;5019458;28;20704;-70
2023/04/08 08:18:24;;;;;;;47.00;26.33;;;;;;;10.34;85.08;101908.06;5016212;28;20033;-69
2023/04/08 08:20:50;;;;;;;50.28;26.80;;;;;;;10.52;86.91;101912.56;5018796;28;20063;-70
2023/04/08 08:23:15;;;;;;;43.92;24.80;;;;;;;10.51;84.24;101913.41;5020763;28;20037;-68
2023/04/08 08:25:41;;;;;;;40.60;23.13;;;;;;;10.60;83.56;101908.31;5018094;28;20105;-68
2023/04/08 08:28:06;;;;;;;44.47;23.75;;;;;;;10.73;83.93;101905.88;5018448;28;20040;-68
2023/04/08 08:30:31;;;;;;;45.63;24.20;;;;;;;10.78;82.80;101905.91;5019175;28;20063;-67
2023/04/08 08:32:57;;;;;;;42.97;24.15;;;;;;;10.85;82.34;101909.44;5017767;28;20033;-67
2023/04/08 08:35:23;;;;;;;46.13;25.15;;;;;;;10.79;81.30;101910.25;5020917;28;20037;-68
2023/04/08 08:37:49;;;;;;;45.67;26.33;;;;;;;10.89;81.78;101917.22;5017871;28;20125;-68
2023/04/08 08:40:14;;;;;;;49.00;26.48;;;;;;;11.03;82.06;101913.03;5010139;28;20671;-69
2023/04/08 08:42:40;;;;;;;46.17;25.50;;;;;;;11.21;80.61;101907.16;5016576;28;20115;-68
2023/04/08 08:45:07;;;;;;;43.90;24.52;;;;;;;11.29;79.61;101911.50;5012988;28;20113;-68
2023/04/08 08:47:32;;;;;;;50.85;26.70;;;;;;;11.20;78.91;101907.97;5013299;28;20049;-69
2023/04/08 08:49:58;;;;;;;45.83;25.80;;;;;;;11.35;79.03;101903.78;5014708;28;20033;-69
2023/04/08 08:52:23;;;;;;;41.25;24.73;;;;;;;11.49;77.42;101895.25;5014746;28;20033;-68
2023/04/08 08:54:56;;;;;;;43.53;25.45;;;;;;;11.48;77.71;101907.38;5014323;28;20040;-68
2023/04/08 08:57:22;;;;;;;43.58;26.33;;;;;;;11.66;77.61;101906.59;5030712;28;20037;-69
2023/04/08 08:59:48;;;;;;;40.05;24.25;;;;;;;11.69;76.23;101899.69;5012020;28;20063;-69
2023/04/08 09:02:27;;;;;;;41.25;24.52;;;;;;;11.66;76.45;101906.59;5012542;28;20049;-70
2023/04/08 09:05:03;;;;;;;39.33;23.23;;;;;;;11.65;76.58;101910.91;5012454;28;20040;-70
2023/04/08 09:07:30;;;;;;;43.45;25.95;;;;;;;11.69;76.03;101904.03;5016561;28;20029;-69
2023/04/08 09:09:58;;;;;;;44.17;26.08;;;;;;;11.64;75.01;101903.13;5013659;28;20037;-69
2023/04/08 09:12:24;;;;;;;43.42;25.20;;;;;;;11.71;75.56;101913.53;5018780;28;20034;-69
2023/04/08 09:14:50;;;;;;;42.67;25.83;;;;;;;11.90;75.95;101912.75;5014062;28;20068;-69
2023/04/08 09:17:31;;;;;;;43.78;26.80;;;;;;;11.80;73.89;101897.16;5010310;28;20601;-69
2023/04/08 09:20:10;;;;;;;40.67;25.30;;;;;;;12.03;73.40;101881.69;5012536;28;20692;-69
2023/04/08 09:22:57;;;;;;;43.28;25.60;;;;;;;12.28;73.80;101893.91;5014179;28;20108;-69
2023/04/08 09:25:28;;;;;;;44.17;25.23;;;;;;;12.37;72.50;101878.38;5015899;28;20752;-69
2023/04/08 09:27:54;;;;;;;46.20;25.38;;;;;;;12.49;73.26;101890.47;5021886;28;20152;-68
2023/04/08 09:30:24;;;;;;;42.60;24.73;;;;;;;12.35;71.71;101870.56;5010958;28;20037;-68
2023/04/08 09:32:54;;;;;;;41.42;25.65;;;;;;;12.46;72.79;101896.53;5027318;28;20094;-68
2023/04/08 09:35:21;;;;;;;44.47;26.45;;;;;;;12.30;73.00;101907.72;5007776;28;20068;-68
2023/04/08 09:37:47;;;;;;;48.67;27.45;;;;;;;12.11;73.29;101922.34;5012284;28;20033;-69
2023/04/08 09:40:15;;;;;;;44.28;25.92;;;;;;;12.05;73.93;101921.47;5020830;28;20083;-68
2023/04/08 09:42:43;;;;;;;46.42;26.65;;;;;;;12.07;74.25;101930.09;5014535;28;20069;-69
2023/04/08 09:45:10;;;;;;;44.38;26.33;;;;;;;12.05;74.98;101942.19;5013231;28;20119;-69
2023/04/08 09:48:15;;;;;;;45.40;26.23;;;;;;;11.97;74.23;101933.50;5014203;28;20046;-69
2023/04/08 09:50:46;;;;;;;49.80;28.77;;;;;;;12.11;75.82;101937.03;5022273;28;20041;-68
2023/04/08 09:53:25;;;;;;;42.38;27.17;;;;;;;12.31;75.71;101932.78;5022867;28;20037;-69
2023/04/08 09:55:54;;;;;;;46.58;26.38;;;;;;;12.42;73.56;101913.81;5015432;28;20569;-68
2023/04/08 09:58:26;;;;;;;44.05;27.17;;;;;;;12.60;73.06;101905.19;5023628;28;20037;-68
2023/04/08 10:00:53;;;;;;;46.80;27.80;;;;;;;12.39;73.70;101918.97;5021005;28;20510;-68
2023/04/08 10:03:31;;;;;;;42.67;26.48;;;;;;;12.50;73.80;101919.00;5019433;28;20581;-69
2023/04/08 10:06:00;;;;;;;43.90;26.52;;;;;;;12.48;74.45;101925.91;5013422;28;20511;-69
2023/04/08 10:08:26;;;;;;;43.80;25.88;;;;;;;12.30;74.51;101931.03;5018782;28;20042;-68
2023/04/08 10:10:53;;;;;;;42.63;25.30;;;;;;;12.35;73.45;101914.63;5017451;28;20021;-69
2023/04/08 10:13:19;;;;;;;43.97;26.27;;;;;;;12.35;73.88;101925.00;5013862;28;20556;-69
2023/04/08 10:15:46;;;;;;;42.50;24.60;;;;;;;12.24;74.00;101925.84;5017338;28;20041;-69
2023/04/08 10:18:13;;;;;;;43.80;24.52;;;;;;;12.42;72.87;101897.38;5020979;28;20415;-69
2023/04/08 10:20:38;;;;;;;40.60;24.48;;;;;;;12.60;72.14;101892.22;5011334;28;20740;-69
2023/04/08 10:23:06;;;;;;;37.78;22.25;;;;;;;12.54;71.55;101892.22;5016538;28;20038;-69
2023/04/08 10:25:40;;;;;;;42.05;21.80;;;;;;;12.74;71.56;101900.00;5017447;28;20775;-68
2023/04/08 10:28:11;;;;;;;44.40;24.23;;;;;;;12.64;71.95;101904.34;5015035;28;20060;-69
2023/04/08 10:30:36;;;;;;;84.47;27.73;;;;;;;12.52;70.99;101898.25;5009209;28;20310;-69
2023/04/08 10:33:09;;;;;;;36.67;22.25;;;;;;;12.50;72.15;101923.31;5012368;28;20742;-68
2023/04/08 10:35:36;;;;;;;38.65;24.15;;;;;;;12.51;72.72;101933.69;5018604;28;20107;-68
2023/04/08 10:38:02;;;;;;;37.85;22.80;;;;;;;12.39;71.11;101908.59;5023068;28;20041;-68
2023/04/08 10:40:35;;;;;;;37.35;23.45;;;;;;;12.38;70.94;101900.81;5018501;28;20494;-69
2023/04/08 10:43:00;;;;;;;47.78;25.15;;;;;;;12.35;70.56;101895.63;5012801;28;22278;-68
2023/04/08 10:45:26;;;;;;;42.45;25.27;;;;;;;12.20;71.42;101912.00;5019544;28;20056;-68
2023/04/08 10:47:51;;;;;;;40.97;24.20;;;;;;;12.15;73.61;101937.03;5013588;28;20577;-69
2023/04/08 10:50:22;;;;;;;43.78;25.70;;;;;;;12.29;71.87;101901.66;5021020;28;20073;-69
2023/04/08 10:52:49;;;;;;;44.30;23.73;;;;;;;12.36;71.42;101902.53;5005036;28;20039;-69
2023/04/08 10:55:17;;;;;;;43.20;25.23;;;;;;;12.40;71.85;101910.34;5011821;28;20726;-70
2023/04/08 10:57:42;;;;;;;42.00;23.67;;;;;;;12.61;70.15;101875.81;5025072;28;20041;-69
2023/04/08 11:00:11;;;;;;;43.95;25.50;;;;;;;12.67;70.14;101880.97;5022753;28;20070;-70
2023/04/08 11:02:39;;;;;;;42.63;25.95;;;;;;;12.91;68.35;101851.59;5023036;28;20981;-69
2023/04/08 11:05:05;;;;;;;43.05;24.38;;;;;;;12.73;66.71;101828.25;5019877;28;20034;-69
2023/04/08 11:07:30;;;;;;;45.17;25.77;;;;;;;12.89;67.18;101846.41;5020065;28;20709;-69
2023/04/08 11:09:56;;;;;;;46.22;27.15;;;;;;;13.06;66.44;101835.19;5018638;28;20053;-70
2023/04/08 11:12:22;;;;;;;44.80;26.58;;;;;;;12.92;67.04;101849.00;5035903;28;20094;-68